createdAt,value
2019-05-01T00:01:24.129Z,11.70
2019-05-01T00:04:12.609Z,11.70
2019-05-01T00:06:48.883Z,11.70
2019-05-01T00:09:19.275Z,11.60
2019-05-01T00:11:51.601Z,11.60
2019-05-01T00:14:24.011Z,11.60
2019-05-01T00:16:54.611Z,11.60
2019-05-01T00:19:25.137Z,11.60
2019-05-01T00:21:56.713Z,11.50
2019-05-01T00:24:27.422Z,11.50
2019-05-01T00:26:57.862Z,11.50
2019-05-01T00:29:28.235Z,11.50
2019-05-01T00:31:58.593Z,11.50
2019-05-01T00:34:29.008Z,11.40
2019-05-01T00:36:59.475Z,11.40
2019-05-01T00:39:30.223Z,11.40
2019-05-01T00:42:01.269Z,11.40
2019-05-01T00:44:31.579Z,11.30
2019-05-01T00:47:01.900Z,11.30
2019-05-01T00:49:32.306Z,11.30
2019-05-01T00:52:03.035Z,11.20
2019-05-01T00:54:36.041Z,11.20
2019-05-01T00:57:34.528Z,11.10
2019-05-01T01:00:25.993Z,11.00
2019-05-01T01:02:57.195Z,10.90
2019-05-01T01:05:27.777Z,10.80
2019-05-01T01:07:58.092Z,10.80
2019-05-01T01:10:28.520Z,10.80
2019-05-01T01:13:01.732Z,10.70
2019-05-01T01:15:32.157Z,10.60
2019-05-01T01:18:02.494Z,10.60
2019-05-01T01:20:32.843Z,10.50
2019-05-01T01:23:22.285Z,10.40
2019-05-01T01:25:53.699Z,10.40
2019-05-01T01:28:24.578Z,10.40
2019-05-01T01:30:56.482Z,10.30
2019-05-01T01:33:27.203Z,10.30
2019-05-01T01:35:57.595Z,10.30
2019-05-01T01:38:28.981Z,10.20
2019-05-01T01:40:59.720Z,10.20
2019-05-01T01:43:47.037Z,10.20
2019-05-01T01:46:19.413Z,10.10
2019-05-01T01:48:49.725Z,10.10
2019-05-01T01:51:20.145Z,10.10
2019-05-01T01:53:52.217Z,10.10
2019-05-01T01:56:22.902Z,10.00
2019-05-01T01:58:53.749Z,10.00
2019-05-01T02:01:43.453Z,10.00
2019-05-01T02:04:33.377Z,9.90
2019-05-01T02:07:03.891Z,9.90
2019-05-01T02:09:34.293Z,9.90
2019-05-01T02:12:04.611Z,9.80
2019-05-01T02:14:35.216Z,9.80
2019-05-01T02:17:05.517Z,9.80
2019-05-01T02:19:35.803Z,9.80
2019-05-01T02:22:06.140Z,9.80
2019-05-01T02:24:37.353Z,9.80
2019-05-01T02:27:12.659Z,9.80
2019-05-01T02:29:48.481Z,9.80
2019-05-01T02:32:20.524Z,9.80
2019-05-01T02:34:52.289Z,9.80
2019-05-01T02:37:25.215Z,9.80
2019-05-01T02:39:57.429Z,9.80
2019-05-01T02:42:31.260Z,9.80
2019-05-01T02:45:04.336Z,9.80
2019-05-01T02:47:37.591Z,9.80
2019-05-01T02:50:10.437Z,9.80
2019-05-01T02:52:43.297Z,9.80
2019-05-01T02:55:38.220Z,9.90
2019-05-01T02:58:09.264Z,9.90
2019-05-01T03:00:39.856Z,9.90
2019-05-01T03:03:10.599Z,9.90
2019-05-01T03:05:40.992Z,10.00
2019-05-01T03:08:11.405Z,10.00
2019-05-01T03:10:41.827Z,10.00
2019-05-01T03:13:12.163Z,10.00
2019-05-01T03:15:42.704Z,10.10
2019-05-01T03:18:28.157Z,10.10
2019-05-01T03:21:07.446Z,10.10
2019-05-01T03:23:57.328Z,10.20
2019-05-01T03:26:27.779Z,10.20
2019-05-01T03:28:58.160Z,10.20
2019-05-01T03:31:28.693Z,10.20
2019-05-01T03:34:00.093Z,10.20
2019-05-01T03:36:30.709Z,10.20
2019-05-01T03:39:01.344Z,10.30
2019-05-01T03:41:33.277Z,10.30
2019-05-01T03:44:04.794Z,10.30
2019-05-01T03:46:37.346Z,10.30
2019-05-01T03:49:07.742Z,10.20
2019-05-01T03:51:38.236Z,10.20
2019-05-01T03:54:09.064Z,10.20
2019-05-01T03:56:39.628Z,10.20
2019-05-01T03:59:10.468Z,10.30
2019-05-01T04:02:12.378Z,10.30
2019-05-01T04:04:42.978Z,10.30
2019-05-01T04:07:13.423Z,10.30
2019-05-01T04:09:43.769Z,10.30
2019-05-01T04:12:14.156Z,10.30
2019-05-01T04:14:44.671Z,10.30
2019-05-01T04:17:33.716Z,10.40
2019-05-01T04:20:04.140Z,10.40
2019-05-01T04:22:34.446Z,10.40
2019-05-01T04:25:05.188Z,10.40
2019-05-01T04:27:38.166Z,10.40
2019-05-01T04:30:16.343Z,10.40
2019-05-01T04:32:52.518Z,10.40
2019-05-01T04:35:37.696Z,10.50
2019-05-01T04:38:08.131Z,10.50
2019-05-01T04:40:38.699Z,10.50
2019-05-01T04:43:09.011Z,10.60
2019-05-01T04:45:39.342Z,10.60
2019-05-01T04:48:10.859Z,10.70
2019-05-01T04:50:42.041Z,10.70
2019-05-01T04:53:12.463Z,10.80
2019-05-01T04:55:42.851Z,10.80
2019-05-01T04:58:20.710Z,10.80
2019-05-01T05:00:51.101Z,10.90
2019-05-01T05:03:23.363Z,10.90
2019-05-01T05:05:53.858Z,11.00
2019-05-01T05:08:24.160Z,11.00
2019-05-01T05:10:56.444Z,11.00
2019-05-01T05:13:34.334Z,11.10
2019-05-01T05:16:20.405Z,11.10
2019-05-01T05:18:51.015Z,11.00
2019-05-01T05:21:21.327Z,11.10
2019-05-01T05:23:51.933Z,11.10
2019-05-01T05:26:22.514Z,11.20
2019-05-01T05:28:53.266Z,11.20
2019-05-01T05:31:26.665Z,11.30
2019-05-01T05:33:59.787Z,11.40
2019-05-01T05:36:32.043Z,11.40
2019-05-01T05:39:16.446Z,11.40
2019-05-01T05:41:48.665Z,11.50
2019-05-01T05:44:19.068Z,11.60
2019-05-01T05:46:50.459Z,11.70
2019-05-01T05:49:22.645Z,11.90
2019-05-01T05:52:00.240Z,11.90
2019-05-01T05:54:56.713Z,12.00
2019-05-01T05:57:44.358Z,12.00
2019-05-01T06:00:29.278Z,12.10
2019-05-01T06:03:10.790Z,12.30
2019-05-01T06:06:06.323Z,12.30
2019-05-01T06:08:39.753Z,12.40
2019-05-01T06:11:20.225Z,12.50
2019-05-01T06:14:02.023Z,12.60
2019-05-01T06:17:04.834Z,12.70
2019-05-01T06:20:08.213Z,12.90
2019-05-01T06:22:58.160Z,13.00
2019-05-01T06:25:32.906Z,13.30
2019-05-01T06:28:03.265Z,13.40
2019-05-01T06:30:34.901Z,13.50
2019-05-01T06:33:09.510Z,13.50
2019-05-01T06:35:39.402Z,13.50
2019-05-01T06:38:14.051Z,13.60
2019-05-01T06:40:45.955Z,13.60
2019-05-01T06:43:57.008Z,13.70
2019-05-01T06:46:31.814Z,13.70
2019-05-01T06:49:16.210Z,13.80
2019-05-01T06:51:53.149Z,13.80
2019-05-01T06:54:25.775Z,13.90
2019-05-01T06:56:57.229Z,14.10
2019-05-01T06:59:31.487Z,14.20
2019-05-01T07:02:01.889Z,14.20
2019-05-01T07:04:37.926Z,14.30
2019-05-01T07:07:09.836Z,14.40
2019-05-01T07:09:39.213Z,14.40
2019-05-01T07:12:14.666Z,14.50
2019-05-01T07:14:47.079Z,14.60
2019-05-01T07:17:17.671Z,14.60
2019-05-01T07:19:55.505Z,14.60
2019-05-01T07:22:27.520Z,14.70
2019-05-01T07:24:59.013Z,14.80
2019-05-01T07:27:30.951Z,15.00
2019-05-01T07:30:09.599Z,15.20
2019-05-01T07:32:42.798Z,15.30
2019-05-01T07:35:13.291Z,15.40
2019-05-01T07:37:44.366Z,15.70
2019-05-01T07:40:14.789Z,15.90
2019-05-01T07:42:48.188Z,16.10
2019-05-01T07:45:39.094Z,16.30
2019-05-01T07:48:07.783Z,16.50
2019-05-01T07:50:39.411Z,17.20
2019-05-01T07:53:09.801Z,18.10
2019-05-01T07:55:40.474Z,19.50
2019-05-01T07:58:16.005Z,21.10
2019-05-01T08:00:53.815Z,23.00
2019-05-01T08:03:24.189Z,24.40
2019-05-01T08:05:54.493Z,25.20
2019-05-01T08:08:24.865Z,25.60
2019-05-01T08:10:55.161Z,26.30
2019-05-01T08:13:25.524Z,26.70
2019-05-01T08:16:15.580Z,27.20
2019-05-01T08:18:58.968Z,28.10
2019-05-01T08:21:48.499Z,29.10
2019-05-01T08:24:23.044Z,29.50
2019-05-01T08:26:50.920Z,30.50
2019-05-01T08:48:57.435Z,31.10
2019-05-01T09:10:28.403Z,29.60
2019-05-01T09:15:57.976Z,29.50
2019-05-01T09:24:52.917Z,32.30
2019-05-01T09:27:43.022Z,32.20
2019-05-01T09:30:21.713Z,31.50
2019-05-01T09:32:54.645Z,30.50
2019-05-01T09:35:25.137Z,29.60
2019-05-01T09:37:55.579Z,29.30
2019-05-01T09:40:27.028Z,30.00
2019-05-01T09:42:59.484Z,30.60
2019-05-01T09:45:29.715Z,30.20
2019-05-01T09:48:00.023Z,29.60
2019-05-01T09:50:32.027Z,28.80
2019-05-01T09:53:12.985Z,28.10
2019-05-01T09:55:55.912Z,27.70
2019-05-01T09:58:26.259Z,27.80
2019-05-01T10:00:59.286Z,27.90
2019-05-01T10:03:29.724Z,28.30
2019-05-01T10:06:00.061Z,29.10
2019-05-01T10:08:30.377Z,29.40
2019-05-01T10:11:05.212Z,29.90
2019-05-01T10:13:33.021Z,30.60
2019-05-01T10:16:03.392Z,31.10
2019-05-01T10:18:35.443Z,31.10
2019-05-01T10:21:05.786Z,31.20
2019-05-01T10:23:36.095Z,31.10
2019-05-01T10:29:21.418Z,30.90
2019-05-01T10:32:17.037Z,31.20
2019-05-01T10:37:41.656Z,31.30
2019-05-01T10:40:12.122Z,31.30
2019-05-01T10:42:42.431Z,31.40
2019-05-01T10:45:12.979Z,31.40
2019-05-01T10:47:43.272Z,31.40
2019-05-01T10:50:13.707Z,31.20
2019-05-01T10:52:44.020Z,31.00
2019-05-01T10:55:14.338Z,30.80
2019-05-01T10:57:44.671Z,30.60
2019-05-01T11:00:15.183Z,30.60
2019-05-01T11:02:45.578Z,30.50
2019-05-01T11:05:34.996Z,30.50
2019-05-01T11:08:24.214Z,30.40
2019-05-01T11:10:54.578Z,30.20
2019-05-01T11:13:24.860Z,29.90
2019-05-01T11:15:55.340Z,29.50
2019-05-01T11:18:25.707Z,29.00
2019-05-01T11:23:55.506Z,28.90
2019-05-01T11:26:25.865Z,29.00
2019-05-01T11:28:56.240Z,28.90
2019-05-01T11:31:33.000Z,28.70
2019-05-01T11:34:17.759Z,28.70
2019-05-01T11:37:07.652Z,28.80
2019-05-01T11:39:42.150Z,28.80
2019-05-01T11:45:12.744Z,28.60
2019-05-01T11:47:43.087Z,28.40
2019-05-01T11:50:13.423Z,28.40
2019-05-01T11:55:46.768Z,28.40
2019-05-01T11:58:17.123Z,28.40
2019-05-01T12:00:48.870Z,28.30
2019-05-01T12:03:19.184Z,28.20
2019-05-01T12:05:49.568Z,28.10
2019-05-01T12:08:19.872Z,27.90
2019-05-01T12:13:53.327Z,27.70
2019-05-01T12:16:42.664Z,27.50
2019-05-01T12:19:13.059Z,27.30
2019-05-01T12:21:43.386Z,27.10
2019-05-01T12:24:13.710Z,27.00
2019-05-01T12:26:44.137Z,26.90
2019-05-01T12:29:15.478Z,26.80
2019-05-01T12:31:58.507Z,26.80
2019-05-01T12:34:28.862Z,26.80
2019-05-01T12:40:15.822Z,26.70
2019-05-01T12:42:46.112Z,26.40
2019-05-01T12:45:18.146Z,26.30
2019-05-01T12:47:51.065Z,26.10
2019-05-01T12:50:22.437Z,25.90
2019-05-01T12:56:39.106Z,25.90
2019-05-01T12:59:09.389Z,26.00
2019-05-01T13:01:40.772Z,26.00
2019-05-01T13:04:11.086Z,26.00
2019-05-01T13:06:49.230Z,25.90
2019-05-01T13:09:36.492Z,25.90
2019-05-01T13:12:07.386Z,25.80
2019-05-01T13:14:37.770Z,25.70
2019-05-01T13:17:08.078Z,25.50
2019-05-01T13:19:38.475Z,25.30
2019-05-01T13:22:09.074Z,25.10
2019-05-01T13:24:50.070Z,25.00
2019-05-01T13:27:35.832Z,24.90
2019-05-01T13:30:18.837Z,24.80
2019-05-01T13:32:50.886Z,24.60
2019-05-01T13:35:21.232Z,24.60
2019-05-01T13:37:51.524Z,24.40
2019-05-01T13:40:22.059Z,24.30
2019-05-01T13:42:53.908Z,24.20
2019-05-01T13:48:24.458Z,24.00
2019-05-01T13:50:54.798Z,23.90
2019-05-01T13:53:25.149Z,23.80
2019-05-01T13:55:55.516Z,23.80
2019-05-01T13:58:25.944Z,23.80
2019-05-01T14:00:56.281Z,23.70
2019-05-01T14:03:26.656Z,23.60
2019-05-01T14:05:57.566Z,23.60
2019-05-01T14:08:28.862Z,23.60
2019-05-01T14:10:59.154Z,23.50
2019-05-01T14:13:30.460Z,23.40
2019-05-01T14:16:00.804Z,23.30
2019-05-01T14:18:31.112Z,23.30
2019-05-01T14:21:08.480Z,23.20
2019-05-01T14:24:10.467Z,23.20
2019-05-01T14:26:41.196Z,23.20
2019-05-01T14:29:11.520Z,23.20
2019-05-01T14:31:41.883Z,23.20
2019-05-01T14:34:12.188Z,23.10
2019-05-01T14:36:42.540Z,23.00
2019-05-01T14:39:12.884Z,22.90
2019-05-01T14:41:43.176Z,22.90
2019-05-01T14:44:14.433Z,22.80
2019-05-01T14:46:44.713Z,22.80
2019-05-01T14:49:15.073Z,22.70
2019-05-01T14:51:45.377Z,22.60
2019-05-01T14:54:16.798Z,22.70
2019-05-01T14:56:47.161Z,22.60
2019-05-01T14:59:17.489Z,22.60
2019-05-01T15:01:53.720Z,22.50
2019-05-01T15:04:24.030Z,22.40
2019-05-01T15:06:54.397Z,22.40
2019-05-01T15:09:37.869Z,22.40
2019-05-01T15:12:19.971Z,22.50
2019-05-01T15:15:00.650Z,22.40
2019-05-01T15:17:52.800Z,22.30
2019-05-01T15:20:23.080Z,22.30
2019-05-01T15:22:53.423Z,22.20
2019-05-01T15:25:23.771Z,22.00
2019-05-01T15:27:54.153Z,22.00
2019-05-01T15:30:24.468Z,21.90
2019-05-01T15:32:54.866Z,21.90
2019-05-01T15:35:25.182Z,21.80
2019-05-01T15:37:57.307Z,21.70
2019-05-01T15:40:43.602Z,21.60
2019-05-01T15:43:29.391Z,21.50
2019-05-01T15:45:59.701Z,21.50
2019-05-01T15:48:31.336Z,21.40
2019-05-01T15:51:01.660Z,21.30
2019-05-01T15:53:32.024Z,21.20
2019-05-01T15:56:02.337Z,21.10
2019-05-01T15:58:33.711Z,21.10
2019-05-01T16:01:04.368Z,21.00
2019-05-01T16:03:34.726Z,20.90
2019-05-01T16:06:05.021Z,20.70
2019-05-01T16:08:35.366Z,20.60
2019-05-01T16:11:12.822Z,20.50
2019-05-01T16:13:43.147Z,20.30
2019-05-01T16:16:13.464Z,20.10
2019-05-01T16:18:45.017Z,20.00
2019-05-01T16:21:15.340Z,19.90
2019-05-01T16:23:48.427Z,19.80
2019-05-01T16:26:18.768Z,19.70
2019-05-01T16:28:49.141Z,19.60
2019-05-01T16:31:19.462Z,19.50
2019-05-01T16:33:49.796Z,19.50
2019-05-01T16:36:20.460Z,19.40
2019-05-01T16:39:04.616Z,19.30
2019-05-01T16:41:35.403Z,19.30
2019-05-01T16:44:05.817Z,19.20
2019-05-01T16:46:49.071Z,19.10
2019-05-01T16:49:19.794Z,19.10
2019-05-01T16:51:50.136Z,19.00
2019-05-01T16:54:20.458Z,19.00
2019-05-01T16:56:50.784Z,18.90
2019-05-01T16:59:21.086Z,18.80
2019-05-01T17:02:09.848Z,18.80
2019-05-01T17:04:48.688Z,18.80
2019-05-01T17:07:53.322Z,18.70
2019-05-01T17:10:33.705Z,18.60
2019-05-01T17:13:06.608Z,18.60
2019-05-01T17:15:41.885Z,18.50
2019-05-01T17:18:12.358Z,18.40
2019-05-01T17:20:43.181Z,18.40
2019-05-01T17:23:14.893Z,18.30
2019-05-01T17:25:45.279Z,18.30
2019-05-01T17:28:16.189Z,18.20
2019-05-01T17:30:52.264Z,18.10
2019-05-01T17:33:22.681Z,18.10
2019-05-01T17:35:52.966Z,18.00
2019-05-01T17:38:23.676Z,18.00
2019-05-01T17:40:53.986Z,17.90
2019-05-01T17:43:24.351Z,17.90
2019-05-01T17:45:55.770Z,17.80
2019-05-01T17:48:28.843Z,17.80
2019-05-01T17:51:00.523Z,17.70
2019-05-01T17:53:31.952Z,17.60
2019-05-01T17:56:02.313Z,17.60
2019-05-01T17:58:33.697Z,17.50
2019-05-01T18:01:27.447Z,17.50
2019-05-01T18:04:12.580Z,17.40
2019-05-01T18:06:46.609Z,17.40
2019-05-01T18:09:17.990Z,17.30
2019-05-01T18:11:52.260Z,17.20
2019-05-01T18:14:20.252Z,17.20
2019-05-01T18:16:50.956Z,17.10
2019-05-01T18:19:21.305Z,17.10
2019-05-01T18:22:00.390Z,17.00
2019-05-01T18:24:48.531Z,17.00
2019-05-01T18:27:36.454Z,17.00
2019-05-01T18:30:10.277Z,16.90
2019-05-01T18:32:47.462Z,16.90
2019-05-01T18:35:16.080Z,16.80
2019-05-01T18:38:01.443Z,16.70
2019-05-01T18:40:56.818Z,16.70
2019-05-01T18:43:31.811Z,16.60
2019-05-01T18:46:13.424Z,16.60
2019-05-01T18:48:44.218Z,16.60
2019-05-01T18:51:16.368Z,16.50
2019-05-01T18:53:48.138Z,16.50
2019-05-01T18:56:18.494Z,16.50
2019-05-01T18:58:48.806Z,16.50
2019-05-01T19:01:19.515Z,16.40
2019-05-01T19:03:50.302Z,16.40
2019-05-01T19:06:20.680Z,16.40
2019-05-01T19:08:51.122Z,16.30
2019-05-01T19:11:21.529Z,16.30
2019-05-01T19:13:51.828Z,16.30
2019-05-01T19:16:22.181Z,16.20
2019-05-01T19:18:52.553Z,16.20
2019-05-01T19:21:24.502Z,16.10
2019-05-01T19:23:54.835Z,16.10
2019-05-01T19:26:25.643Z,16.10
2019-05-01T19:28:56.047Z,16.10
2019-05-01T19:31:26.605Z,16.00
2019-05-01T19:33:57.077Z,16.00
2019-05-01T19:36:27.482Z,16.00
2019-05-01T19:39:11.640Z,16.00
2019-05-01T19:41:43.759Z,16.00
2019-05-01T19:44:13.944Z,16.00
2019-05-01T19:46:45.511Z,16.00
2019-05-01T19:49:15.920Z,16.00
2019-05-01T19:51:46.283Z,15.90
2019-05-01T19:54:16.705Z,15.90
2019-05-01T19:56:47.038Z,15.90
2019-05-01T19:59:17.374Z,15.90
2019-05-01T20:01:49.546Z,15.80
2019-05-01T20:04:20.814Z,15.80
2019-05-01T20:06:51.617Z,15.80
2019-05-01T20:09:21.994Z,15.70
2019-05-01T20:11:52.417Z,15.70
2019-05-01T20:14:22.784Z,15.70
2019-05-01T20:16:53.130Z,15.70
2019-05-01T20:19:23.762Z,15.70
2019-05-01T20:21:54.146Z,15.70
2019-05-01T20:24:25.687Z,15.70
2019-05-01T20:26:56.027Z,15.60
2019-05-01T20:29:27.468Z,15.60
2019-05-01T20:31:57.971Z,15.60
2019-05-01T20:34:28.380Z,15.60
2019-05-01T20:36:58.786Z,15.50
2019-05-01T20:39:29.057Z,15.50
2019-05-01T20:41:59.490Z,15.50
2019-05-01T20:44:31.413Z,15.40
2019-05-01T20:47:02.581Z,15.50
2019-05-01T20:49:36.528Z,15.40
2019-05-01T20:52:05.743Z,15.40
2019-05-01T20:54:37.530Z,15.40
2019-05-01T20:57:21.040Z,15.40
2019-05-01T20:59:48.795Z,15.40
2019-05-01T21:02:19.508Z,15.40
2019-05-01T21:05:07.634Z,15.40
2019-05-01T21:07:43.108Z,15.40
2019-05-01T21:10:24.267Z,15.40
2019-05-01T21:12:45.480Z,15.30
2019-05-01T21:15:19.974Z,15.40
2019-05-01T21:17:49.277Z,15.40
2019-05-01T21:20:20.033Z,15.30
2019-05-01T21:22:50.457Z,15.20
2019-05-01T21:25:21.178Z,15.20
2019-05-01T21:27:51.589Z,15.20
2019-05-01T21:30:23.738Z,15.10
2019-05-01T21:32:54.262Z,15.10
2019-05-01T21:35:24.659Z,15.10
2019-05-01T21:37:55.060Z,15.00
2019-05-01T21:40:37.741Z,14.90
2019-05-01T21:42:59.355Z,14.90
2019-05-01T21:45:29.662Z,14.90
2019-05-01T21:48:03.116Z,14.80
2019-05-01T21:50:33.654Z,14.80
2019-05-01T21:53:06.848Z,14.70
2019-05-01T21:55:37.459Z,14.60
2019-05-01T21:58:08.076Z,14.60
2019-05-01T22:00:40.595Z,14.50
2019-05-01T22:03:16.684Z,14.50
2019-05-01T22:05:47.789Z,14.50
2019-05-01T22:08:18.137Z,14.40
2019-05-01T22:10:52.210Z,14.40
2019-05-01T22:13:24.279Z,14.40
2019-05-01T22:15:58.856Z,14.40
2019-05-01T22:18:34.163Z,14.30
2019-05-01T22:21:19.246Z,14.30
2019-05-01T22:24:12.426Z,14.20
2019-05-01T22:26:46.448Z,14.10
2019-05-01T22:29:18.395Z,14.10
2019-05-01T22:32:15.889Z,14.00
2019-05-01T22:34:50.275Z,14.00
2019-05-01T22:37:20.632Z,13.90
2019-05-01T22:39:56.384Z,13.90
2019-05-01T22:42:28.529Z,13.90
2019-05-01T22:44:59.091Z,13.90
2019-05-01T22:47:29.744Z,13.80
2019-05-01T22:50:00.032Z,13.80
2019-05-01T22:52:30.404Z,13.70
2019-05-01T22:55:00.713Z,13.70
2019-05-01T22:57:31.110Z,13.60
2019-05-01T23:00:01.915Z,13.60
2019-05-01T23:02:41.535Z,13.60
2019-05-01T23:05:12.134Z,13.50
2019-05-01T23:07:42.479Z,13.40
2019-05-01T23:10:13.184Z,13.40
2019-05-01T23:12:43.500Z,13.40
2019-05-01T23:15:19.455Z,13.30
2019-05-01T23:17:49.856Z,13.30
2019-05-01T23:20:20.650Z,13.20
2019-05-01T23:22:51.004Z,13.20
2019-05-01T23:25:21.390Z,13.20
2019-05-01T23:27:52.308Z,13.20
2019-05-01T23:30:23.052Z,13.20
2019-05-01T23:32:54.728Z,13.20
2019-05-01T23:35:26.107Z,13.20
2019-05-01T23:37:57.922Z,13.20
2019-05-01T23:40:28.249Z,13.30
2019-05-01T23:42:58.684Z,13.30
2019-05-01T23:45:29.020Z,13.30
2019-05-01T23:47:59.393Z,13.30
2019-05-01T23:50:29.775Z,13.30
2019-05-01T23:53:01.699Z,13.30
2019-05-01T23:55:32.097Z,13.30
2019-05-01T23:58:02.402Z,13.30
